Terminal Aerodrome Forecast
Issued by NWS

Home | Current Version | Previous Version | Text Only | Print | Product List | Glossary On
Versions: 1 2 3 4 5 6 7 8 9 10 11 12 13 14 15
000
FTUS45 KRIW 071123
TAFLND
TAF
KLND 071123Z 0712/0812 VRB04KT P6SM BKN090
     FM071700 04007KT P6SM SCT080 SCT120
     FM072100 02008KT P6SM VCTS SCT060CB BKN120
     FM080300 VRB06KT P6SM VCSH BKN060
     FM080600 25007KT P6SM BKN080=

USA.gov is the U.S. government's official web portal to all federal, state and local government web resources and services.